sensor_id;sensor_type;location;lat;lon;timestamp;pressure;altitude;pressure_sealevel;temperature;humidity
26823;BME280;14852;51.910;8.878;2024-02-23T00:00:29;96728.09;;;11.13;52.95
26823;BME280;14852;51.910;8.878;2024-02-23T00:02:54;96735.56;;;11.16;53.01
26823;BME280;14852;51.910;8.878;2024-02-23T00:05:22;96746.78;;;11.17;53.22
26823;BME280;14852;51.910;8.878;2024-02-23T00:07:48;96769.19;;;11.18;53.37
26823;BME280;14852;51.910;8.878;2024-02-23T00:10:14;96758.44;;;11.13;52.63
26823;BME280;14852;51.910;8.878;2024-02-23T00:12:40;96748.06;;;11.13;52.46
26823;BME280;14852;51.910;8.878;2024-02-23T00:15:06;96762.00;;;11.12;52.16
26823;BME280;14852;51.910;8.878;2024-02-23T00:17:32;96758.91;;;11.08;52.58
26823;BME280;14852;51.910;8.878;2024-02-23T00:19:58;96755.34;;;11.09;52.38
26823;BME280;14852;51.910;8.878;2024-02-23T00:22:24;96756.50;;;11.07;52.24
26823;BME280;14852;51.910;8.878;2024-02-23T00:24:51;96795.78;;;11.04;52.66
26823;BME280;14852;51.910;8.878;2024-02-23T00:27:17;96786.66;;;11.00;52.26
26823;BME280;14852;51.910;8.878;2024-02-23T00:29:42;96820.91;;;10.95;52.47
26823;BME280;14852;51.910;8.878;2024-02-23T00:32:09;96824.47;;;10.94;52.05
26823;BME280;14852;51.910;8.878;2024-02-23T00:34:35;96826.84;;;10.87;52.07
26823;BME280;14852;51.910;8.878;2024-02-23T00:37:01;96814.47;;;10.81;52.15
26823;BME280;14852;51.910;8.878;2024-02-23T00:39:27;96859.56;;;10.72;51.93
26823;BME280;14852;51.910;8.878;2024-02-23T00:41:53;96857.41;;;10.68;52.25
26823;BME280;14852;51.910;8.878;2024-02-23T00:44:19;96859.78;;;10.61;52.09
26823;BME280;14852;51.910;8.878;2024-02-23T00:46:44;96883.06;;;10.53;52.24
26823;BME280;14852;51.910;8.878;2024-02-23T00:49:10;96888.56;;;10.50;52.56
26823;BME280;14852;51.910;8.878;2024-02-23T00:51:36;96900.09;;;10.47;52.79
26823;BME280;14852;51.910;8.878;2024-02-23T00:54:02;96888.50;;;10.42;52.91
26823;BME280;14852;51.910;8.878;2024-02-23T00:56:27;96895.41;;;10.33;52.87
26823;BME280;14852;51.910;8.878;2024-02-23T00:58:53;96905.41;;;10.28;53.17
26823;BME280;14852;51.910;8.878;2024-02-23T01:01:19;96929.91;;;10.26;53.77
26823;BME280;14852;51.910;8.878;2024-02-23T01:03:45;96941.91;;;10.27;53.94
26823;BME280;14852;51.910;8.878;2024-02-23T01:06:10;96955.69;;;10.17;54.37
26823;BME280;14852;51.910;8.878;2024-02-23T01:08:36;96977.06;;;10.11;54.30
26823;BME280;14852;51.910;8.878;2024-02-23T01:11:02;96991.03;;;10.01;54.79
26823;BME280;14852;51.910;8.878;2024-02-23T01:13:27;96994.19;;;9.95;55.42
26823;BME280;14852;51.910;8.878;2024-02-23T01:15:53;97009.25;;;9.91;55.33
26823;BME280;14852;51.910;8.878;2024-02-23T01:18:19;96993.28;;;9.86;55.02
26823;BME280;14852;51.910;8.878;2024-02-23T01:20:45;97026.91;;;9.78;55.55
26823;BME280;14852;51.910;8.878;2024-02-23T01:23:11;97043.00;;;9.72;55.55
26823;BME280;14852;51.910;8.878;2024-02-23T01:25:37;97026.25;;;9.66;55.84
26823;BME280;14852;51.910;8.878;2024-02-23T01:28:03;97034.44;;;9.62;55.62
26823;BME280;14852;51.910;8.878;2024-02-23T01:30:29;97047.69;;;9.59;55.76
26823;BME280;14852;51.910;8.878;2024-02-23T01:32:55;97069.38;;;9.58;55.73
26823;BME280;14852;51.910;8.878;2024-02-23T01:35:20;97078.13;;;9.57;56.14
26823;BME280;14852;51.910;8.878;2024-02-23T01:37:46;97083.97;;;9.49;56.37
26823;BME280;14852;51.910;8.878;2024-02-23T01:40:12;97089.59;;;9.44;56.15
26823;BME280;14852;51.910;8.878;2024-02-23T01:42:38;97099.94;;;9.35;56.40
26823;BME280;14852;51.910;8.878;2024-02-23T01:45:05;97101.34;;;9.29;56.77
26823;BME280;14852;51.910;8.878;2024-02-23T01:47:31;97111.00;;;9.27;56.62
26823;BME280;14852;51.910;8.878;2024-02-23T01:49:58;97116.44;;;9.24;56.82
26823;BME280;14852;51.910;8.878;2024-02-23T01:52:24;97130.22;;;9.25;56.66
26823;BME280;14852;51.910;8.878;2024-02-23T01:54:51;97128.88;;;9.21;56.37
26823;BME280;14852;51.910;8.878;2024-02-23T01:57:18;97138.00;;;9.15;56.67
26823;BME280;14852;51.910;8.878;2024-02-23T01:59:44;97141.16;;;9.09;56.79
26823;BME280;14852;51.910;8.878;2024-02-23T02:02:09;97143.03;;;9.07;56.58
26823;BME280;14852;51.910;8.878;2024-02-23T02:04:35;97147.41;;;9.06;56.66
26823;BME280;14852;51.910;8.878;2024-02-23T02:07:01;97149.19;;;9.06;56.80
26823;BME280;14852;51.910;8.878;2024-02-23T02:09:27;97145.91;;;9.04;56.78
26823;BME280;14852;51.910;8.878;2024-02-23T02:11:53;97149.69;;;9.00;56.63
26823;BME280;14852;51.910;8.878;2024-02-23T02:14:19;97147.53;;;8.95;56.46
26823;BME280;14852;51.910;8.878;2024-02-23T02:16:45;97157.06;;;8.95;56.49
26823;BME280;14852;51.910;8.878;2024-02-23T02:19:12;97158.28;;;8.91;56.66
26823;BME280;14852;51.910;8.878;2024-02-23T02:21:39;97151.88;;;8.85;56.51
26823;BME280;14852;51.910;8.878;2024-02-23T02:24:05;97159.78;;;8.84;56.67
26823;BME280;14852;51.910;8.878;2024-02-23T02:26:31;97160.97;;;8.80;56.58
26823;BME280;14852;51.910;8.878;2024-02-23T02:28:57;97183.44;;;8.79;56.49
26823;BME280;14852;51.910;8.878;2024-02-23T02:31:23;97181.69;;;8.80;56.88
26823;BME280;14852;51.910;8.878;2024-02-23T02:33:49;97173.91;;;8.80;56.74
26823;BME280;14852;51.910;8.878;2024-02-23T02:36:21;97182.22;;;8.74;57.08
26823;BME280;14852;51.910;8.878;2024-02-23T02:38:47;97190.78;;;8.64;56.74
26823;BME280;14852;51.910;8.878;2024-02-23T02:41:13;97198.25;;;8.58;56.88
26823;BME280;14852;51.910;8.878;2024-02-23T02:43:39;97200.53;;;8.51;56.79
26823;BME280;14852;51.910;8.878;2024-02-23T02:46:04;97204.19;;;8.49;56.85
26823;BME280;14852;51.910;8.878;2024-02-23T02:48:30;97214.84;;;8.55;56.88
26823;BME280;14852;51.910;8.878;2024-02-23T02:50:56;97213.34;;;8.53;56.83
26823;BME280;14852;51.910;8.878;2024-02-23T02:53:21;97209.66;;;8.55;56.97
26823;BME280;14852;51.910;8.878;2024-02-23T02:55:47;97221.94;;;8.53;56.56
26823;BME280;14852;51.910;8.878;2024-02-23T02:58:13;97233.59;;;8.48;56.93
26823;BME280;14852;51.910;8.878;2024-02-23T03:00:40;97233.16;;;8.43;56.55
26823;BME280;14852;51.910;8.878;2024-02-23T03:03:06;97227.31;;;8.41;56.84
26823;BME280;14852;51.910;8.878;2024-02-23T03:05:32;97234.25;;;8.40;56.71
26823;BME280;14852;51.910;8.878;2024-02-23T03:07:57;97237.66;;;8.41;56.28
26823;BME280;14852;51.910;8.878;2024-02-23T03:10:23;97248.69;;;8.43;56.78
26823;BME280;14852;51.910;8.878;2024-02-23T03:12:49;97232.38;;;8.42;56.31
26823;BME280;14852;51.910;8.878;2024-02-23T03:15:15;97240.13;;;8.42;56.45
26823;BME280;14852;51.910;8.878;2024-02-23T03:17:40;97238.34;;;8.43;56.56
26823;BME280;14852;51.910;8.878;2024-02-23T03:20:07;97240.91;;;8.43;56.18
26823;BME280;14852;51.910;8.878;2024-02-23T03:22:37;97249.38;;;8.45;56.33
26823;BME280;14852;51.910;8.878;2024-02-23T03:25:04;97243.84;;;8.49;56.36
26823;BME280;14852;51.910;8.878;2024-02-23T03:27:35;97237.72;;;8.50;56.02
26823;BME280;14852;51.910;8.878;2024-02-23T03:30:05;97250.53;;;8.52;56.41
26823;BME280;14852;51.910;8.878;2024-02-23T03:32:33;97241.00;;;8.52;56.38
26823;BME280;14852;51.910;8.878;2024-02-23T03:35:03;97256.25;;;8.55;56.21
26823;BME280;14852;51.910;8.878;2024-02-23T03:37:29;97258.84;;;8.55;56.18
26823;BME280;14852;51.910;8.878;2024-02-23T03:39:55;97255.19;;;8.58;56.41
26823;BME280;14852;51.910;8.878;2024-02-23T03:42:21;97263.38;;;8.63;56.11
26823;BME280;14852;51.910;8.878;2024-02-23T03:44:46;97265.84;;;8.64;56.00
26823;BME280;14852;51.910;8.878;2024-02-23T03:47:12;97271.56;;;8.68;55.97
26823;BME280;14852;51.910;8.878;2024-02-23T03:49:38;97277.44;;;8.70;55.75
26823;BME280;14852;51.910;8.878;2024-02-23T03:52:05;97261.09;;;8.69;56.13
26823;BME280;14852;51.910;8.878;2024-02-23T03:54:30;97266.13;;;8.71;55.98
26823;BME280;14852;51.910;8.878;2024-02-23T03:56:57;97262.72;;;8.70;55.70
26823;BME280;14852;51.910;8.878;2024-02-23T03:59:23;97272.38;;;8.68;56.10
26823;BME280;14852;51.910;8.878;2024-02-23T04:01:49;97272.38;;;8.68;55.90
26823;BME280;14852;51.910;8.878;2024-02-23T04:04:15;97271.44;;;8.69;56.05
26823;BME280;14852;51.910;8.878;2024-02-23T04:06:43;97279.22;;;8.69;55.63
26823;BME280;14852;51.910;8.878;2024-02-23T04:09:09;97280.97;;;8.69;55.50
26823;BME280;14852;51.910;8.878;2024-02-23T04:11:35;97282.38;;;8.73;55.54
26823;BME280;14852;51.910;8.878;2024-02-23T04:14:01;97275.56;;;8.72;55.51
26823;BME280;14852;51.910;8.878;2024-02-23T04:16:27;97295.31;;;8.73;55.73
26823;BME280;14852;51.910;8.878;2024-02-23T04:18:54;97292.72;;;8.73;55.76
26823;BME280;14852;51.910;8.878;2024-02-23T04:21:20;97296.97;;;8.74;55.74
26823;BME280;14852;51.910;8.878;2024-02-23T04:23:46;97309.09;;;8.74;55.36
26823;BME280;14852;51.910;8.878;2024-02-23T04:26:12;97293.53;;;8.74;55.33
26823;BME280;14852;51.910;8.878;2024-02-23T04:28:41;97302.25;;;8.73;55.39
26823;BME280;14852;51.910;8.878;2024-02-23T04:31:11;97312.75;;;8.71;55.42
26823;BME280;14852;51.910;8.878;2024-02-23T04:33:39;97304.84;;;8.73;55.68
26823;BME280;14852;51.910;8.878;2024-02-23T04:36:06;97311.66;;;8.74;55.72
26823;BME280;14852;51.910;8.878;2024-02-23T04:38:34;97310.97;;;8.71;55.06
26823;BME280;14852;51.910;8.878;2024-02-23T04:41:03;97313.44;;;8.73;54.92
26823;BME280;14852;51.910;8.878;2024-02-23T04:43:32;97306.38;;;8.75;54.89
26823;BME280;14852;51.910;8.878;2024-02-23T04:45:58;97306.50;;;8.74;54.87
26823;BME280;14852;51.910;8.878;2024-02-23T04:48:24;97313.56;;;8.71;55.35
26823;BME280;14852;51.910;8.878;2024-02-23T04:50:50;97321.16;;;8.63;55.22
26823;BME280;14852;51.910;8.878;2024-02-23T04:53:16;97318.34;;;8.55;55.12
26823;BME280;14852;51.910;8.878;2024-02-23T04:55:41;97320.53;;;8.50;55.20
26823;BME280;14852;51.910;8.878;2024-02-23T04:58:07;97327.72;;;8.47;55.39
26823;BME280;14852;51.910;8.878;2024-02-23T05:00:33;97327.28;;;8.42;55.58
26823;BME280;14852;51.910;8.878;2024-02-23T05:03:02;97337.19;;;8.37;55.30
26823;BME280;14852;51.910;8.878;2024-02-23T05:05:32;97334.59;;;8.37;55.61
26823;BME280;14852;51.910;8.878;2024-02-23T05:07:58;97348.22;;;8.39;55.38
26823;BME280;14852;51.910;8.878;2024-02-23T05:10:24;97349.75;;;8.41;55.11
26823;BME280;14852;51.910;8.878;2024-02-23T05:12:50;97338.31;;;8.44;54.86
26823;BME280;14852;51.910;8.878;2024-02-23T05:15:16;97360.66;;;8.45;54.97
26823;BME280;14852;51.910;8.878;2024-02-23T05:17:42;97357.00;;;8.47;55.00
26823;BME280;14852;51.910;8.878;2024-02-23T05:20:08;97368.06;;;8.49;54.48
26823;BME280;14852;51.910;8.878;2024-02-23T05:22:39;97354.16;;;8.50;54.51
26823;BME280;14852;51.910;8.878;2024-02-23T05:25:06;97349.81;;;8.51;54.21
26823;BME280;14852;51.910;8.878;2024-02-23T05:27:32;97360.16;;;8.51;54.81
26823;BME280;14852;51.910;8.878;2024-02-23T05:29:58;97349.47;;;8.44;54.83
26823;BME280;14852;51.910;8.878;2024-02-23T05:32:24;97358.34;;;8.42;54.89
26823;BME280;14852;51.910;8.878;2024-02-23T05:34:50;97356.81;;;8.39;54.81
26823;BME280;14852;51.910;8.878;2024-02-23T05:37:18;97371.75;;;8.35;55.05
26823;BME280;14852;51.910;8.878;2024-02-23T05:39:44;97365.63;;;8.37;54.59
26823;BME280;14852;51.910;8.878;2024-02-23T05:42:12;97385.41;;;8.38;55.12
26823;BME280;14852;51.910;8.878;2024-02-23T05:44:38;97370.44;;;8.41;55.05
26823;BME280;14852;51.910;8.878;2024-02-23T05:47:05;97381.34;;;8.45;54.81
26823;BME280;14852;51.910;8.878;2024-02-23T05:49:30;97387.09;;;8.48;54.41
26823;BME280;14852;51.910;8.878;2024-02-23T05:51:56;97385.34;;;8.49;54.63
26823;BME280;14852;51.910;8.878;2024-02-23T05:54:22;97395.69;;;8.49;54.56
26823;BME280;14852;51.910;8.878;2024-02-23T05:56:48;97395.56;;;8.50;54.28
26823;BME280;14852;51.910;8.878;2024-02-23T05:59:15;97399.00;;;8.51;54.75
26823;BME280;14852;51.910;8.878;2024-02-23T06:01:41;97404.88;;;8.53;54.71
26823;BME280;14852;51.910;8.878;2024-02-23T06:04:06;97403.66;;;8.57;54.58
26823;BME280;14852;51.910;8.878;2024-02-23T06:06:32;97403.53;;;8.58;54.35
26823;BME280;14852;51.910;8.878;2024-02-23T06:08:58;97400.00;;;8.59;54.28
26823;BME280;14852;51.910;8.878;2024-02-23T06:11:24;97398.22;;;8.60;54.51
26823;BME280;14852;51.910;8.878;2024-02-23T06:13:49;97392.22;;;8.59;54.32
26823;BME280;14852;51.910;8.878;2024-02-23T06:16:15;97410.34;;;8.59;54.39
26823;BME280;14852;51.910;8.878;2024-02-23T06:18:41;97412.81;;;8.61;54.32
26823;BME280;14852;51.910;8.878;2024-02-23T06:21:17;97409.28;;;8.62;54.44
26823;BME280;14852;51.910;8.878;2024-02-23T06:23:44;97413.06;;;8.58;54.58
26823;BME280;14852;51.910;8.878;2024-02-23T06:26:10;97403.78;;;8.55;54.24
26823;BME280;14852;51.910;8.878;2024-02-23T06:28:37;97418.88;;;8.50;54.62
26823;BME280;14852;51.910;8.878;2024-02-23T06:31:05;97412.75;;;8.51;54.71
26823;BME280;14852;51.910;8.878;2024-02-23T06:33:31;97410.28;;;8.50;54.58
26823;BME280;14852;51.910;8.878;2024-02-23T06:35:57;97411.34;;;8.47;54.76
26823;BME280;14852;51.910;8.878;2024-02-23T06:38:23;97413.81;;;8.49;54.45
26823;BME280;14852;51.910;8.878;2024-02-23T06:40:49;97415.34;;;8.51;54.29
26823;BME280;14852;51.910;8.878;2024-02-23T06:43:14;97417.94;;;8.51;54.39
26823;BME280;14852;51.910;8.878;2024-02-23T06:45:40;97422.00;;;8.54;54.43
26823;BME280;14852;51.910;8.878;2024-02-23T06:48:06;97411.53;;;8.55;54.18
26823;BME280;14852;51.910;8.878;2024-02-23T06:50:32;97412.13;;;8.59;54.18
26823;BME280;14852;51.910;8.878;2024-02-23T06:52:58;97400.00;;;8.59;54.41
26823;BME280;14852;51.910;8.878;2024-02-23T06:55:24;97415.00;;;8.65;53.88
26823;BME280;14852;51.910;8.878;2024-02-23T06:57:49;97406.50;;;8.75;53.71
26823;BME280;14852;51.910;8.878;2024-02-23T07:00:15;97413.09;;;9.30;53.22
26823;BME280;14852;51.910;8.878;2024-02-23T07:02:41;97406.97;;;9.71;52.04
26823;BME280;14852;51.910;8.878;2024-02-23T07:05:07;97403.84;;;9.67;52.05
26823;BME280;14852;51.910;8.878;2024-02-23T07:07:34;97417.06;;;9.64;52.36
26823;BME280;14852;51.910;8.878;2024-02-23T07:10:00;97419.50;;;9.56;52.28
26823;BME280;14852;51.910;8.878;2024-02-23T07:12:26;97421.06;;;9.48;52.69
26823;BME280;14852;51.910;8.878;2024-02-23T07:14:56;97419.50;;;9.35;52.74
26823;BME280;14852;51.910;8.878;2024-02-23T07:17:23;97420.41;;;9.25;53.12
26823;BME280;14852;51.910;8.878;2024-02-23T07:19:48;97417.84;;;9.25;53.03
26823;BME280;14852;51.910;8.878;2024-02-23T07:22:16;97422.47;;;9.21;52.69
26823;BME280;14852;51.910;8.878;2024-02-23T07:24:44;97432.38;;;9.16;53.01
26823;BME280;14852;51.910;8.878;2024-02-23T07:27:10;97420.78;;;9.11;53.39
26823;BME280;14852;51.910;8.878;2024-02-23T07:29:35;97422.09;;;9.05;53.22
26823;BME280;14852;51.910;8.878;2024-02-23T07:32:02;97408.78;;;9.10;53.45
26823;BME280;14852;51.910;8.878;2024-02-23T07:34:27;97422.03;;;9.16;53.05
26823;BME280;14852;51.910;8.878;2024-02-23T07:36:54;97427.75;;;9.40;53.05
26823;BME280;14852;51.910;8.878;2024-02-23T07:39:20;97431.44;;;10.66;50.35
26823;BME280;14852;51.910;8.878;2024-02-23T07:41:46;97421.44;;;12.29;46.86
26823;BME280;14852;51.910;8.878;2024-02-23T07:44:12;97423.44;;;13.66;44.31
26823;BME280;14852;51.910;8.878;2024-02-23T07:46:38;97431.88;;;15.17;42.06
26823;BME280;14852;51.910;8.878;2024-02-23T07:49:05;97429.72;;;16.54;39.91
26823;BME280;14852;51.910;8.878;2024-02-23T07:51:32;97439.19;;;17.76;38.93
26823;BME280;14852;51.910;8.878;2024-02-23T07:53:58;97443.13;;;18.37;37.92
26823;BME280;14852;51.910;8.878;2024-02-23T07:56:23;97444.22;;;19.00;36.99
26823;BME280;14852;51.910;8.878;2024-02-23T07:58:49;97449.09;;;19.31;36.81
26823;BME280;14852;51.910;8.878;2024-02-23T08:01:15;97451.16;;;19.57;36.72
26823;BME280;14852;51.910;8.878;2024-02-23T08:03:41;97447.00;;;20.16;36.49
26823;BME280;14852;51.910;8.878;2024-02-23T08:06:07;97449.69;;;20.30;35.92
26823;BME280;14852;51.910;8.878;2024-02-23T08:08:33;97460.19;;;20.23;36.60
26823;BME280;14852;51.910;8.878;2024-02-23T08:11:03;97453.31;;;19.81;37.29
26823;BME280;14852;51.910;8.878;2024-02-23T08:13:29;97463.41;;;19.71;37.38
26823;BME280;14852;51.910;8.878;2024-02-23T08:15:56;97465.81;;;20.54;36.30
26823;BME280;14852;51.910;8.878;2024-02-23T08:18:22;97464.03;;;20.68;35.87
26823;BME280;14852;51.910;8.878;2024-02-23T08:20:48;97480.97;;;19.98;36.20
26823;BME280;14852;51.910;8.878;2024-02-23T08:23:14;97473.81;;;18.80;38.27
26823;BME280;14852;51.910;8.878;2024-02-23T08:25:40;97480.00;;;17.93;38.99
26823;BME280;14852;51.910;8.878;2024-02-23T08:28:07;97493.22;;;16.72;40.12
26823;BME280;14852;51.910;8.878;2024-02-23T08:30:33;97494.72;;;16.27;41.40
26823;BME280;14852;51.910;8.878;2024-02-23T08:32:59;97498.75;;;16.07;41.09
26823;BME280;14852;51.910;8.878;2024-02-23T08:35:26;97496.59;;;15.64;40.96
26823;BME280;14852;51.910;8.878;2024-02-23T08:37:51;97491.91;;;15.98;41.03
26823;BME280;14852;51.910;8.878;2024-02-23T08:40:17;97487.56;;;16.83;38.90
26823;BME280;14852;51.910;8.878;2024-02-23T08:42:43;97476.03;;;17.97;36.92
26823;BME280;14852;51.910;8.878;2024-02-23T08:45:09;97479.66;;;17.81;37.30
26823;BME280;14852;51.910;8.878;2024-02-23T08:47:38;97486.69;;;17.66;37.58
26823;BME280;14852;51.910;8.878;2024-02-23T08:50:04;97484.16;;;16.97;38.79
26823;BME280;14852;51.910;8.878;2024-02-23T08:52:30;97492.91;;;16.67;39.23
26823;BME280;14852;51.910;8.878;2024-02-23T08:54:56;97495.03;;;16.94;38.56
26823;BME280;14852;51.910;8.878;2024-02-23T08:57:22;97493.66;;;17.21;38.20
26823;BME280;14852;51.910;8.878;2024-02-23T08:59:49;97483.25;;;16.68;38.01
26823;BME280;14852;51.910;8.878;2024-02-23T09:02:15;97510.16;;;15.59;39.56
26823;BME280;14852;51.910;8.878;2024-02-23T09:04:41;97510.97;;;14.78;40.84
26823;BME280;14852;51.910;8.878;2024-02-23T09:07:07;97511.31;;;14.75;41.01
26823;BME280;14852;51.910;8.878;2024-02-23T09:09:32;97506.34;;;16.33;38.84
26823;BME280;14852;51.910;8.878;2024-02-23T09:11:58;97490.63;;;17.99;36.00
26823;BME280;14852;51.910;8.878;2024-02-23T09:14:24;97490.59;;;19.01;34.10
26823;BME280;14852;51.910;8.878;2024-02-23T09:16:51;97500.84;;;18.74;34.44
26823;BME280;14852;51.910;8.878;2024-02-23T09:19:18;97505.41;;;17.48;36.89
26823;BME280;14852;51.910;8.878;2024-02-23T09:21:44;97508.03;;;16.57;38.23
26823;BME280;14852;51.910;8.878;2024-02-23T09:24:10;97528.78;;;15.72;39.90
26823;BME280;14852;51.910;8.878;2024-02-23T09:26:36;97528.31;;;14.96;40.88
26823;BME280;14852;51.910;8.878;2024-02-23T09:29:01;97537.09;;;14.28;41.83
26823;BME280;14852;51.910;8.878;2024-02-23T09:31:27;97539.09;;;13.74;42.48
26823;BME280;14852;51.910;8.878;2024-02-23T09:33:57;97559.47;;;13.27;42.52
26823;BME280;14852;51.910;8.878;2024-02-23T09:36:23;97567.13;;;12.93;42.90
26823;BME280;14852;51.910;8.878;2024-02-23T09:38:50;97554.44;;;12.63;43.00
26823;BME280;14852;51.910;8.878;2024-02-23T09:41:23;97560.13;;;12.49;43.85
26823;BME280;14852;51.910;8.878;2024-02-23T09:43:50;97561.84;;;12.40;43.69
26823;BME280;14852;51.910;8.878;2024-02-23T09:46:17;97562.25;;;12.45;43.54
26823;BME280;14852;51.910;8.878;2024-02-23T09:48:48;97559.25;;;12.40;43.63
26823;BME280;14852;51.910;8.878;2024-02-23T09:51:15;97571.22;;;12.23;43.29
26823;BME280;14852;51.910;8.878;2024-02-23T09:53:41;97566.25;;;12.03;43.31
26823;BME280;14852;51.910;8.878;2024-02-23T09:56:09;97561.50;;;12.25;43.65
26823;BME280;14852;51.910;8.878;2024-02-23T09:58:39;97559.91;;;12.42;42.82
26823;BME280;14852;51.910;8.878;2024-02-23T10:01:07;97557.72;;;12.38;42.72
26823;BME280;14852;51.910;8.878;2024-02-23T10:03:37;97546.69;;;12.71;42.15
26823;BME280;14852;51.910;8.878;2024-02-23T10:06:04;97543.06;;;12.82;41.59
26823;BME280;14852;51.910;8.878;2024-02-23T10:08:30;97542.94;;;13.01;40.83
26823;BME280;14852;51.910;8.878;2024-02-23T10:10:56;97542.47;;;13.05;41.87
26823;BME280;14852;51.910;8.878;2024-02-23T10:13:23;97547.69;;;13.05;42.02
26823;BME280;14852;51.910;8.878;2024-02-23T10:15:52;97547.75;;;12.96;41.91
26823;BME280;14852;51.910;8.878;2024-02-23T10:18:19;97548.38;;;12.90;41.86
26823;BME280;14852;51.910;8.878;2024-02-23T10:20:47;97559.75;;;12.89;42.03
26823;BME280;14852;51.910;8.878;2024-02-23T10:23:13;97555.28;;;12.81;42.06
26823;BME280;14852;51.910;8.878;2024-02-23T10:25:39;97567.56;;;12.71;42.05
26823;BME280;14852;51.910;8.878;2024-02-23T10:28:06;97555.03;;;12.57;42.07
26823;BME280;14852;51.910;8.878;2024-02-23T10:30:32;97561.03;;;12.40;42.00
26823;BME280;14852;51.910;8.878;2024-02-23T10:32:59;97561.69;;;12.42;42.50
26823;BME280;14852;51.910;8.878;2024-02-23T10:35:25;97575.47;;;12.34;42.45
26823;BME280;14852;51.910;8.878;2024-02-23T10:37:53;97565.59;;;12.28;42.77
26823;BME280;14852;51.910;8.878;2024-02-23T10:40:21;97575.25;;;12.18;42.36
26823;BME280;14852;51.910;8.878;2024-02-23T10:42:50;97566.50;;;12.09;42.50
26823;BME280;14852;51.910;8.878;2024-02-23T10:45:21;97553.78;;;12.06;42.72
26823;BME280;14852;51.910;8.878;2024-02-23T10:47:51;97552.56;;;12.01;42.44
26823;BME280;14852;51.910;8.878;2024-02-23T10:50:18;97559.28;;;11.93;42.40
26823;BME280;14852;51.910;8.878;2024-02-23T10:52:45;97559.16;;;11.95;42.94
26823;BME280;14852;51.910;8.878;2024-02-23T10:55:14;97555.06;;;11.92;42.06
26823;BME280;14852;51.910;8.878;2024-02-23T10:57:39;97564.09;;;11.88;42.66
26823;BME280;14852;51.910;8.878;2024-02-23T11:00:07;97559.28;;;11.93;42.64
26823;BME280;14852;51.910;8.878;2024-02-23T11:02:43;97551.72;;;12.00;42.80
26823;BME280;14852;51.910;8.878;2024-02-23T11:05:11;97567.97;;;12.12;42.82
26823;BME280;14852;51.910;8.878;2024-02-23T11:07:39;97544.41;;;12.23;42.04
26823;BME280;14852;51.910;8.878;2024-02-23T11:10:08;97553.53;;;12.27;41.80
26823;BME280;14852;51.910;8.878;2024-02-23T11:12:36;97539.13;;;12.32;41.51
26823;BME280;14852;51.910;8.878;2024-02-23T11:15:02;97537.78;;;12.56;42.25
26823;BME280;14852;51.910;8.878;2024-02-23T11:17:31;97532.13;;;12.78;41.41
26823;BME280;14852;51.910;8.878;2024-02-23T11:19:58;97526.78;;;12.97;41.95
26823;BME280;14852;51.910;8.878;2024-02-23T11:22:34;97518.81;;;13.17;41.93
26823;BME280;14852;51.910;8.878;2024-02-23T11:25:08;97533.91;;;13.31;41.37
26823;BME280;14852;51.910;8.878;2024-02-23T11:27:39;97530.19;;;13.33;41.24
26823;BME280;14852;51.910;8.878;2024-02-23T11:30:10;97523.88;;;13.36;41.34
26823;BME280;14852;51.910;8.878;2024-02-23T11:32:46;97520.09;;;13.38;41.77
26823;BME280;14852;51.910;8.878;2024-02-23T11:35:15;97519.97;;;13.40;41.12
26823;BME280;14852;51.910;8.878;2024-02-23T11:37:55;97529.94;;;13.45;41.64
26823;BME280;14852;51.910;8.878;2024-02-23T11:40:26;97527.19;;;13.46;41.07
26823;BME280;14852;51.910;8.878;2024-02-23T11:42:51;97533.22;;;13.47;41.14
26823;BME280;14852;51.910;8.878;2024-02-23T11:45:17;97530.03;;;13.35;41.59
26823;BME280;14852;51.910;8.878;2024-02-23T11:47:43;97534.16;;;13.37;41.37
26823;BME280;14852;51.910;8.878;2024-02-23T11:50:09;97530.72;;;13.37;41.12
26823;BME280;14852;51.910;8.878;2024-02-23T11:52:39;97527.06;;;13.30;41.12
26823;BME280;14852;51.910;8.878;2024-02-23T11:55:05;97521.66;;;13.23;40.98
26823;BME280;14852;51.910;8.878;2024-02-23T11:57:33;97513.28;;;13.20;41.28
26823;BME280;14852;51.910;8.878;2024-02-23T12:00:02;97513.44;;;13.00;40.27
26823;BME280;14852;51.910;8.878;2024-02-23T12:02:30;97522.59;;;12.87;40.51
26823;BME280;14852;51.910;8.878;2024-02-23T12:04:56;97520.97;;;12.86;41.00
26823;BME280;14852;51.910;8.878;2024-02-23T12:07:22;97526.56;;;12.91;40.32
26823;BME280;14852;51.910;8.878;2024-02-23T12:09:48;97521.50;;;12.89;40.83
26823;BME280;14852;51.910;8.878;2024-02-23T12:12:14;97526.91;;;12.96;40.70
26823;BME280;14852;51.910;8.878;2024-02-23T12:14:40;97536.38;;;12.97;41.32
26823;BME280;14852;51.910;8.878;2024-02-23T12:17:08;97531.78;;;12.91;41.22
26823;BME280;14852;51.910;8.878;2024-02-23T12:19:38;97506.28;;;12.85;40.54
26823;BME280;14852;51.910;8.878;2024-02-23T12:22:08;97516.72;;;12.85;41.03
26823;BME280;14852;51.910;8.878;2024-02-23T12:24:35;97519.84;;;12.88;40.92
26823;BME280;14852;51.910;8.878;2024-02-23T12:27:01;97518.81;;;12.99;41.33
26823;BME280;14852;51.910;8.878;2024-02-23T12:29:26;97508.09;;;13.02;41.14
26823;BME280;14852;51.910;8.878;2024-02-23T12:32:06;97509.25;;;13.07;40.81
26823;BME280;14852;51.910;8.878;2024-02-23T12:34:32;97510.34;;;13.15;40.66
26823;BME280;14852;51.910;8.878;2024-02-23T12:36:58;97503.34;;;13.15;40.57
26823;BME280;14852;51.910;8.878;2024-02-23T12:39:24;97516.50;;;13.14;40.82
26823;BME280;14852;51.910;8.878;2024-02-23T12:41:50;97508.81;;;13.12;40.71
26823;BME280;14852;51.910;8.878;2024-02-23T12:44:16;97516.56;;;13.22;41.17
26823;BME280;14852;51.910;8.878;2024-02-23T12:46:42;97528.94;;;13.37;40.80
26823;BME280;14852;51.910;8.878;2024-02-23T12:49:08;97505.47;;;13.37;40.64
26823;BME280;14852;51.910;8.878;2024-02-23T12:51:33;97513.56;;;13.34;40.20
26823;BME280;14852;51.910;8.878;2024-02-23T12:54:00;97526.47;;;13.18;40.64
26823;BME280;14852;51.910;8.878;2024-02-23T12:56:26;97521.63;;;13.05;40.70
26823;BME280;14852;51.910;8.878;2024-02-23T12:58:52;97532.13;;;12.96;40.20
26823;BME280;14852;51.910;8.878;2024-02-23T13:01:19;97514.34;;;12.91;40.62